Borden Flats Light at Fall River, MA current weather conditions

sailwx.info

Wind from 205 at 14 knots gusting 19

Air temperature 20.6° C

Last reported at 2020-Oct-01 15:48 UTC.
Time now 2020-Oct-01 16:25 UTC

Location: N 41°42' W 071°10'.
View on Google Maps.

See reports from other nearby stations

  
Tides and Currents Weather Stations Pressure Air Temp Water Temp Dewpoint Dewpoint Depression Visibility Wind Speed Wind Dir Waves Ship Positions
date/time (UTC)wind fromknots sea level pressurealtimeterstation pressurevisibilityair tempwater tempwave heightnotes
2020-Oct-01 15:48 205 14 gusting 19 20.6
2020-Oct-01 15:42 203 18 gusting 22 20.6
2020-Oct-01 15:36 197 18 gusting 22 20.6
2020-Oct-01 15:30 202 18 gusting 23 20.6
2020-Oct-01 15:24 201 16 gusting 21 20.6
2020-Oct-01 15:18 191 16 gusting 21 20.6
2020-Oct-01 15:12 204 17 gusting 20 20.6
2020-Oct-01 15:06 210 15 gusting 19 20.6
2020-Oct-01 15:00 192 13 gusting 15 20.6
2020-Oct-01 14:54 193 14 gusting 18 20.6
2020-Oct-01 14:48 209 14 gusting 19 20.6
2020-Oct-01 14:42 210 15 gusting 19 20.6
2020-Oct-01 14:36 196 14 gusting 17 20.6
2020-Oct-01 14:30 194 13 gusting 16 20.6
2020-Oct-01 14:24 196 14 gusting 20 20.6
2020-Oct-01 14:18 201 13 gusting 19 20.6
2020-Oct-01 14:12 212 13 gusting 16 20.6
2020-Oct-01 14:06 212 11 gusting 14 20.0
2020-Oct-01 14:00 216 13 gusting 14 20.0
2020-Oct-01 13:54 216 13 gusting 15 20.0
2020-Oct-01 13:48 222 12 gusting 14 19.4
2020-Oct-01 13:42 220 13 gusting 14 19.4
2020-Oct-01 13:36 226 13 gusting 14 19.4
2020-Oct-01 13:30 221 13 gusting 14 19.4
2020-Oct-01 13:24 226 12 gusting 13 19.4
2020-Oct-01 13:18 221 12 gusting 14 19.4
2020-Oct-01 13:12 223 12 gusting 13 19.4
2020-Oct-01 13:06 220 12 gusting 13 19.4
2020-Oct-01 13:00 217 12 gusting 13 19.4
2020-Oct-01 12:54 218 11 gusting 13 18.9
2020-Oct-01 12:48 215 12 gusting 14 18.9
2020-Oct-01 12:42 216 11 gusting 13 18.9
2020-Oct-01 12:36 213 9 gusting 12 18.9
2020-Oct-01 12:30 212 9 gusting 12 18.9
2020-Oct-01 12:24 209 10 gusting 13 18.9
2020-Oct-01 12:18 206 11 gusting 13 18.3
2020-Oct-01 12:12 207 10 gusting 13 18.3
2020-Oct-01 12:06 210 8 gusting 9 18.3
2020-Oct-01 12:00 208 8 gusting 11 18.3
2020-Oct-01 11:54 214 8 gusting 10 18.3
2020-Oct-01 11:48 219 11 gusting 12 18.3
2020-Oct-01 11:42 212 12 gusting 13 18.3
2020-Oct-01 11:36 211 11 gusting 13 18.3
2020-Oct-01 11:30 206 10 gusting 13 18.3
2020-Oct-01 11:24 197 11 gusting 15 18.3
2020-Oct-01 11:18 199 11 gusting 13 18.3
2020-Oct-01 11:12 201 10 gusting 13 17.8
2020-Oct-01 11:06 189 9 gusting 11 17.8
2020-Oct-01 11:00 185 8 gusting 11 17.8
2020-Oct-01 10:54 179 6 gusting 9 17.8
2020-Oct-01 10:48 189 6 gusting 11 18.3
2020-Oct-01 10:42 220 12 gusting 13 18.3
2020-Oct-01 10:36 223 13 gusting 14 18.3
2020-Oct-01 10:30 224 12 gusting 13 18.3
2020-Oct-01 10:24 232 11 gusting 13 18.3
2020-Oct-01 10:18 232 11 gusting 13 18.3
2020-Oct-01 10:12 226 11 gusting 13 18.3
2020-Oct-01 10:06 222 12 gusting 15 18.3
2020-Oct-01 10:00 224 13 gusting 13 18.3
2020-Oct-01 09:54 230 12 gusting 14 18.3
2020-Oct-01 09:48 231 13 gusting 14 18.3
2020-Oct-01 09:42 226 13 gusting 15 18.3
2020-Oct-01 09:36 224 13 gusting 15 18.3
2020-Oct-01 09:30 223 13 gusting 14 18.3
2020-Oct-01 09:24 222 13 gusting 15 18.3
2020-Oct-01 09:18 220 14 gusting 16 18.3
2020-Oct-01 09:12 223 14 gusting 17 18.3
2020-Oct-01 09:06 218 13 gusting 17 18.9
2020-Oct-01 09:00 221 14 gusting 18 18.9
2020-Oct-01 08:54 223 16 gusting 19 18.9
2020-Oct-01 08:48 220 15 gusting 18 18.9
2020-Oct-01 08:42 219 14 gusting 19 18.9
2020-Oct-01 08:36 221 14 gusting 17 18.9
2020-Oct-01 08:30 223 14 gusting 16 18.9
2020-Oct-01 08:24 221 15 gusting 19 18.9
2020-Oct-01 08:18 223 16 gusting 18 18.9
2020-Oct-01 08:12 225 18 gusting 19 18.9
2020-Oct-01 08:06 219 14 gusting 18 18.9
2020-Oct-01 08:00 217 14 gusting 18 18.9
2020-Oct-01 07:54 213 13 gusting 17 18.9
2020-Oct-01 07:48 209 13 gusting 17 18.9
2020-Oct-01 07:42 206 10 gusting 13 18.3
2020-Oct-01 07:36 203 13 gusting 16 18.9
2020-Oct-01 07:30 207 12 gusting 15 18.9
2020-Oct-01 07:24 208 13 gusting 16 18.9
2020-Oct-01 07:18 207 13 gusting 16 18.9
2020-Oct-01 07:12 215 14 gusting 17 18.9
2020-Oct-01 07:06 224 16 gusting 20 19.4
2020-Oct-01 07:00 225 17 gusting 19 18.9
2020-Oct-01 06:54 228 16 gusting 19 18.9
2020-Oct-01 06:48 230 16 gusting 20 19.4
2020-Oct-01 06:42 229 19 gusting 22 18.9
2020-Oct-01 06:36 230 18 gusting 21 19.4
2020-Oct-01 06:30 231 16 gusting 19 19.4
2020-Oct-01 06:24 228 18 gusting 21 19.4
2020-Oct-01 06:18 225 17 gusting 20 19.4
2020-Oct-01 06:12 229 16 gusting 19 18.9
2020-Oct-01 06:06 229 17 gusting 19 19.4
2020-Oct-01 06:00 227 16 gusting 19 19.4
2020-Oct-01 05:54 229 15 gusting 19 19.4
2020-Oct-01 05:48 230 19 gusting 21 19.4
2020-Oct-01 05:42 229 19 gusting 21 19.4
2020-Oct-01 05:36 227 19 gusting 22 19.4
2020-Oct-01 05:30 226 18 gusting 21 19.4
2020-Oct-01 05:24 218 15 gusting 18 19.4
2020-Oct-01 05:18 209 13 gusting 16 18.9
2020-Oct-01 05:12 206 12 gusting 14 18.9
2020-Oct-01 05:06 202 11 gusting 15 18.9
2020-Oct-01 05:00 197 10 gusting 13 18.9
2020-Oct-01 04:54 195 9 gusting 12 18.9
2020-Oct-01 04:48 191 7 gusting 11 18.3
2020-Oct-01 04:42 184 6 gusting 10 18.3
2020-Oct-01 04:36 180 6 gusting 9 18.3
2020-Oct-01 04:30 183 6 gusting 12 18.3
2020-Oct-01 04:24 179 6 gusting 10 18.3
2020-Oct-01 04:18 175 6 gusting 9 18.3
2020-Oct-01 04:12 179 6 gusting 8 18.3
2020-Oct-01 04:06 186 6 gusting 9 18.9
2020-Oct-01 04:00 189 8 gusting 12 18.9
2020-Oct-01 03:54 197 9 gusting 14 18.9
2020-Oct-01 03:48 194 10 gusting 13 18.9
2020-Oct-01 03:42 199 10 gusting 14 18.9
2020-Oct-01 03:36 203 10 gusting 13 18.9
2020-Oct-01 03:30 204 9 gusting 12 18.9
2020-Oct-01 03:24 209 9 gusting 12 18.9
2020-Oct-01 03:18 202 8 gusting 12 18.9
2020-Oct-01 03:12 197 9 gusting 13 18.9
2020-Oct-01 03:06 210 13 gusting 16 18.9
2020-Oct-01 03:00 214 13 gusting 17 18.9
2020-Oct-01 02:54 204 11 gusting 15 18.3
2020-Oct-01 02:48 205 10 gusting 15 18.3
2020-Oct-01 02:42 200 8 gusting 11 18.3
2020-Oct-01 02:36 204 8 gusting 12 18.3
2020-Oct-01 02:30 198 7 gusting 10 18.3
2020-Oct-01 02:24 190 7 gusting 9 18.3
2020-Oct-01 02:18 197 7 gusting 9 18.3
2020-Oct-01 02:12 204 8 gusting 11 18.3
2020-Oct-01 02:06 213 10 gusting 13 18.9
2020-Oct-01 02:00 204 7 gusting 9 18.3
2020-Oct-01 01:54 202 8 gusting 11 18.3
2020-Oct-01 01:48 201 10 gusting 14 18.3
2020-Oct-01 01:42 210 11 gusting 15 18.9
2020-Oct-01 01:36 206 9 gusting 12 18.3
2020-Oct-01 01:30 192 9 gusting 11 18.3
2020-Oct-01 01:24 211 10 gusting 14 18.9
2020-Oct-01 01:18 225 13 gusting 16 19.4
2020-Oct-01 01:12 226 16 gusting 18 19.4
2020-Oct-01 01:06 227 16 gusting 19 19.4
2020-Oct-01 01:00 227 16 gusting 19 19.4
2020-Oct-01 00:54 223 15 gusting 18 19.4
2020-Oct-01 00:48 225 16 gusting 18 19.4
2020-Oct-01 00:42 222 13 gusting 16 19.4
2020-Oct-01 00:36 221 15 gusting 18 19.4
2020-Oct-01 00:30 214 11 gusting 13 19.4
2020-Oct-01 00:24 205 11 gusting 13 18.9
2020-Oct-01 00:18 223 16 gusting 19 19.4
2020-Oct-01 00:12 226 16 gusting 19 19.4
2020-Oct-01 00:06 221 16 gusting 18 19.4
2020-Sep-30 23:48 222 16 gusting 19 19.4
2020-Sep-30 23:42 217 16 gusting 18 19.4
2020-Sep-30 23:36 216 14 gusting 18 19.4
2020-Sep-30 23:30 221 18 gusting 19 19.4
2020-Sep-30 23:24 220 16 gusting 18 19.4
2020-Sep-30 23:18 215 17 gusting 19 19.4
2020-Sep-30 23:12 214 16 gusting 19 19.4
2020-Sep-30 23:06 216 18 gusting 19 19.4
2020-Sep-30 23:00 215 17 gusting 19 19.4
2020-Sep-30 22:54 211 14 gusting 18 19.4
2020-Sep-30 22:48 210 16 gusting 19 19.4
2020-Sep-30 22:42 216 16 gusting 19 20.0
2020-Sep-30 22:36 218 17 gusting 19 20.0
2020-Sep-30 22:30 223 14 gusting 17 20.6
2020-Sep-30 22:24 241 13 gusting 14 20.6
2020-Sep-30 22:18 246 13 gusting 14 21.1
2020-Sep-30 22:12 250 12 gusting 14 21.1
2020-Sep-30 22:06 250 13 gusting 13 21.1
2020-Sep-30 22:00 249 13 gusting 15 21.1
2020-Sep-30 21:54 246 13 gusting 14 21.1
2020-Sep-30 21:48 247 13 gusting 15 21.1
2020-Sep-30 21:42 243 15 gusting 18 21.1
2020-Sep-30 21:36 250 13 gusting 15 21.1
2020-Sep-30 21:30 257 13 gusting 15 21.1
2020-Sep-30 21:24 257 14 gusting 16 21.7
2020-Sep-30 21:18 259 13 gusting 15 21.7
2020-Sep-30 21:12 258 15 gusting 18 21.7
2020-Sep-30 21:06 254 16 gusting 18 21.7
2020-Sep-30 21:00 261 18 gusting 19 21.7
2020-Sep-30 20:54 254 18 gusting 21 21.7
2020-Sep-30 20:48 258 16 gusting 20 21.7
2020-Sep-30 20:42 258 19 gusting 22 21.7
2020-Sep-30 20:36 252 17 gusting 19 21.7
2020-Sep-30 20:30 256 19 gusting 24 21.7
2020-Sep-30 20:24 256 19 gusting 22 21.7
2020-Sep-30 20:18 250 20 gusting 25 21.7
2020-Sep-30 20:12 249 16 gusting 19 21.7
2020-Sep-30 20:06 251 17 gusting 20 21.7
2020-Sep-30 20:00 256 20 gusting 24 21.7
2020-Sep-30 19:54 252 19 gusting 24 21.1
2020-Sep-30 19:48 246 18 gusting 20 21.1
2020-Sep-30 19:42 255 18 gusting 21 21.1
2020-Sep-30 19:36 243 18 gusting 22 21.1
2020-Sep-30 19:30 245 19 gusting 26 21.1
2020-Sep-30 19:24 242 13 gusting 16 21.1
2020-Sep-30 19:18 248 19 gusting 22 21.1
2020-Sep-30 19:12 257 20 gusting 24 21.1
2020-Sep-30 19:06 256 19 gusting 22 21.1
2020-Sep-30 19:00 254 19 gusting 22 21.1
2020-Sep-30 18:54 251 19 gusting 24 21.1
2020-Sep-30 18:48 257 21 gusting 24 21.1
2020-Sep-30 18:42 261 22 gusting 26 21.1
2020-Sep-30 18:36 266 19 gusting 23 21.1
2020-Sep-30 18:30 256 21 gusting 25 21.1
2020-Sep-30 18:24 244 20 gusting 26 21.1
2020-Sep-30 18:18 243 23 gusting 27 21.1
2020-Sep-30 18:12 254 22 gusting 26 21.1
2020-Sep-30 18:06 247 20 gusting 24 20.6
2020-Sep-30 18:00 234 20 gusting 26 20.6
2020-Sep-30 17:54 235 19 gusting 22 20.6
2020-Sep-30 17:48 235 23 gusting 26 20.6
2020-Sep-30 17:42 238 22 gusting 30 20.6
2020-Sep-30 17:36 236 23 gusting 27 20.6
2020-Sep-30 17:30 245 26 gusting 33 20.6
2020-Sep-30 17:24 241 25 gusting 31 20.6
2020-Sep-30 17:18 236 26 gusting 33 20.6
2020-Sep-30 17:12 234 24 gusting 33 20.6
2020-Sep-30 17:06 234 26 gusting 30 20.6
2020-Sep-30 17:00 243 29 gusting 34 20.6
2020-Sep-30 16:54 233 24 gusting 33 20.6
2020-Sep-30 16:48 226 29 gusting 33 20.6
2020-Sep-30 16:42 224 29 gusting 34 20.6
2020-Sep-30 16:36 219 30 gusting 38 20.6
2020-Sep-30 16:30 221 27 gusting 34 20.6
2020-Sep-30 16:24 216 21 gusting 25 20.6
2020-Sep-30 16:18 212 20 gusting 24 20.6
2020-Sep-30 16:12 218 20 gusting 24 20.6
2020-Sep-30 16:06 217 20 gusting 24 20.6
2020-Sep-30 16:00 212 19 gusting 24 20.6
2020-Sep-30 15:54 213 19 gusting 23 20.6
2020-Sep-30 15:48 212 17 gusting 20 20.6
2020-Sep-30 15:42 212 15 gusting 18 20.6
2020-Sep-30 15:36 219 16 gusting 19 20.6
2020-Sep-30 15:30 224 18 gusting 21 20.6
2020-Sep-30 15:24 230 18 gusting 22 20.6
2020-Sep-30 15:18 228 19 gusting 22 20.6
2020-Sep-30 15:12 233 21 gusting 24 20.6
2020-Sep-30 15:06 226 21 gusting 26 20.6
2020-Sep-30 15:00 222 24 gusting 29 20.6
2020-Sep-30 14:54 218 22 gusting 26 20.6
2020-Sep-30 14:48 214 24 gusting 26 20.6
2020-Sep-30 14:42 212 26 gusting 31 20.6
2020-Sep-30 14:36 211 26 gusting 31 21.1
2020-Sep-30 14:30 207 25 gusting 31 21.1
2020-Sep-30 14:24 208 24 gusting 33 21.1
2020-Sep-30 14:18 210 26 gusting 33 21.1
2020-Sep-30 14:12 208 26 gusting 33 21.1
2020-Sep-30 14:06 207 27 gusting 33 21.1
2020-Sep-30 14:00 205 24 gusting 35 21.1
2020-Sep-30 13:54 205 23 gusting 34 21.1
2020-Sep-30 13:48 207 25 gusting 31 21.1
2020-Sep-30 13:42 205 25 gusting 31 21.1
2020-Sep-30 13:36 205 25 gusting 31 21.7
2020-Sep-30 13:30 205 21 gusting 27 21.7
2020-Sep-30 13:24 205 19 gusting 24 21.7
2020-Sep-30 13:18 206 23 gusting 30 21.7
2020-Sep-30 13:12 205 19 gusting 26 21.7
2020-Sep-30 13:06 207 19 gusting 23 21.7
2020-Sep-30 13:00 205 19 gusting 26 22.2
2020-Sep-30 12:54 204 21 gusting 26 22.2
2020-Sep-30 12:48 205 21 gusting 26 22.2
2020-Sep-30 12:42 205 24 gusting 31 22.2
2020-Sep-30 12:36 206 26 gusting 33 22.2
2020-Sep-30 12:30 203 24 gusting 33 22.2
2020-Sep-30 12:24 200 21 gusting 28 22.2
2020-Sep-30 12:18 202 23 gusting 30 22.8
2020-Sep-30 12:12 201 22 gusting 29 22.8
2020-Sep-30 12:06 198 24 gusting 32 22.8
2020-Sep-30 12:00 197 27 gusting 38 22.8
2020-Sep-30 11:54 197 33 gusting 45 22.8
2020-Sep-30 11:48 192 27 gusting 39 22.8
2020-Sep-30 11:42 192 32 gusting 46 23.3
2020-Sep-30 11:36 190 27 gusting 39 23.3
2020-Sep-30 11:30 186 26 gusting 39 23.3
2020-Sep-30 11:24 179 33 gusting 50 23.9
2020-Sep-30 11:18 188 30 gusting 42 23.9
2020-Sep-30 11:12 191 23 gusting 40 23.3
2020-Sep-30 11:06 199 23 gusting 36 23.9
2020-Sep-30 11:00 175 22 gusting 39 23.9
2020-Sep-30 10:54 177 27 gusting 39 23.9
2020-Sep-30 10:48 180 26 gusting 36 23.9
2020-Sep-30 10:42 177 29 gusting 43 23.9
2020-Sep-30 10:36 187 26 gusting 33 23.9
2020-Sep-30 10:30 179 26 gusting 36 23.9
2020-Sep-30 10:24 181 27 gusting 41 23.9
2020-Sep-30 10:18 181 26 gusting 39 23.9
2020-Sep-30 10:12 181 30 gusting 46 23.9
2020-Sep-30 10:06 179 25 gusting 35 23.3
2020-Sep-30 10:00 176 24 gusting 34 23.3
2020-Sep-30 09:54 182 31 gusting 45 23.9
2020-Sep-30 09:48 176 27 gusting 46 23.9
2020-Sep-30 09:42 177 25 gusting 36 23.9
2020-Sep-30 09:36 178 29 gusting 42 23.9
2020-Sep-30 09:30 177 25 gusting 43 23.3
2020-Sep-30 09:24 177 23 gusting 36 23.3
2020-Sep-30 09:18 179 23 gusting 31 23.9
2020-Sep-30 09:12 174 26 gusting 44 23.9
2020-Sep-30 09:06 179 26 gusting 37 23.9
2020-Sep-30 09:00 176 19 gusting 29 23.9
2020-Sep-30 08:54 176 27 gusting 42 23.9
2020-Sep-30 08:48 179 19 gusting 28 23.9
2020-Sep-30 08:42 174 22 gusting 33 23.9
2020-Sep-30 08:36 174 22 gusting 36 23.3
2020-Sep-30 08:30 172 24 gusting 33 23.3
2020-Sep-30 08:24 170 19 gusting 27 23.3
2020-Sep-30 08:18 174 20 gusting 29 23.3
2020-Sep-30 08:12 169 21 gusting 33 23.3
2020-Sep-30 08:06 173 22 gusting 32 23.3
2020-Sep-30 08:00 174 19 gusting 26 23.3
2020-Sep-30 07:54 168 21 gusting 33 23.3
2020-Sep-30 07:48 174 23 gusting 33 23.9
2020-Sep-30 07:42 173 16 gusting 24 23.3
2020-Sep-30 07:36 171 17 gusting 34 23.3
2020-Sep-30 07:30 174 18 gusting 28 23.3
2020-Sep-30 07:24 171 19 gusting 29 23.3
2020-Sep-30 07:18 169 20 gusting 33 23.3
2020-Sep-30 07:12 167 17 gusting 25 23.3
2020-Sep-30 07:06 164 20 gusting 27 23.3
2020-Sep-30 07:00 165 18 gusting 26 23.3
2020-Sep-30 06:54 168 17 gusting 26 23.3
2020-Sep-30 06:48 172 15 gusting 22 23.3
2020-Sep-30 06:42 165 18 gusting 26 23.3
2020-Sep-30 06:36 167 14 gusting 20 23.3
2020-Sep-30 06:30 175 19 gusting 27 23.3
2020-Sep-30 06:24 171 18 gusting 26 23.3
2020-Sep-30 06:18 168 18 gusting 26 23.3
2020-Sep-30 06:12 175 19 gusting 29 23.3
2020-Sep-30 06:06 170 17 gusting 25 23.3
2020-Sep-30 06:00 170 16 gusting 29 23.3
2020-Sep-30 05:54 170 16 gusting 24 23.3
2020-Sep-30 05:48 169 13 gusting 19 23.3
2020-Sep-30 05:42 166 14 gusting 20 23.3
2020-Sep-30 05:36 161 15 gusting 23 23.3
2020-Sep-30 05:30 164 13 gusting 17 23.3
2020-Sep-30 05:24 158 15 gusting 19 23.3
2020-Sep-30 05:18 155 15 gusting 20 23.3
2020-Sep-30 05:12 165 14 gusting 20 23.3
2020-Sep-30 05:06 161 13 gusting 22 23.3
2020-Sep-30 05:00 164 14 gusting 22 23.3
2020-Sep-30 04:54 162 13 gusting 18 23.3
2020-Sep-30 04:48 167 11 gusting 15 23.3
2020-Sep-30 04:42 166 16 gusting 23 23.3
2020-Sep-30 04:36 168 11 gusting 16 23.3
2020-Sep-30 04:30 166 13 gusting 21 23.3
2020-Sep-30 04:24 164 10 gusting 14 23.3
2020-Sep-30 04:18 164 11 gusting 18 23.3
2020-Sep-30 04:12 163 12 gusting 18 23.3
2020-Sep-30 04:06 162 12 gusting 18 23.3
2020-Sep-30 04:00 166 11 gusting 14 23.3
2020-Sep-30 03:54 169 11 gusting 18 22.8
2020-Sep-30 03:48 159 7 gusting 11 22.8
2020-Sep-30 03:42 163 8 gusting 12 22.8
2020-Sep-30 03:36 157 13 gusting 19 22.8
2020-Sep-30 03:30 151 12 gusting 14 22.8
2020-Sep-30 03:24 151 10 gusting 14 22.8
2020-Sep-30 03:18 149 8 gusting 12 22.8
2020-Sep-30 03:12 155 10 gusting 13 22.8
2020-Sep-30 03:06 160 9 gusting 14 22.8
2020-Sep-30 03:00 157 6 gusting 10 22.8
2020-Sep-30 02:54 160 9 gusting 13 22.8
2020-Sep-30 02:48 159 9 gusting 13 22.8
2020-Sep-30 02:42 160 10 gusting 16 22.8
2020-Sep-30 02:36 166 9 gusting 12 22.8
2020-Sep-30 02:30 161 8 gusting 12 22.8
2020-Sep-30 02:24 163 10 gusting 13 22.8
2020-Sep-30 02:18 155 9 gusting 13 22.8
2020-Sep-30 02:12 155 9 gusting 13 22.8
2020-Sep-30 02:06 166 9 gusting 13 23.3
2020-Sep-30 02:00 170 10 gusting 14 23.3
2020-Sep-30 01:54 163 9 gusting 13 22.8
2020-Sep-30 01:48 164 11 gusting 16 22.8
2020-Sep-30 01:42 165 12 gusting 14 22.8
2020-Sep-30 01:36 165 11 gusting 14 22.8
2020-Sep-30 01:30 167 9 gusting 17 22.8
2020-Sep-30 01:24 169 8 gusting 13 22.8
2020-Sep-30 01:18 165 11 gusting 18 22.8
2020-Sep-30 01:12 164 10 gusting 14 22.8
2020-Sep-30 01:06 166 11 gusting 16 22.8
2020-Sep-30 01:00 164 11 gusting 16 22.8
2020-Sep-30 00:54 156 10 gusting 13 22.8
2020-Sep-30 00:48 160 9 gusting 13 22.8
2020-Sep-30 00:42 161 9 gusting 12 22.8
2020-Sep-30 00:36 160 10 gusting 14 22.8
2020-Sep-30 00:30 154 9 gusting 11 22.8
2020-Sep-30 00:24 149 9 gusting 14 22.8
2020-Sep-30 00:18 153 8 gusting 13 22.8
2020-Sep-30 00:12 154 7 gusting 10 22.2
2020-Sep-30 00:06 154 7 gusting 11 22.2
2020-Sep-29 23:48 153 7 gusting 12 22.2
2020-Sep-29 23:42 156 8 gusting 11 22.2
2020-Sep-29 23:36 151 9 gusting 13 22.2
2020-Sep-29 23:30 150 10 gusting 13 22.2
2020-Sep-29 23:24 155 9 gusting 12 22.2
2020-Sep-29 23:18 151 7 gusting 10 22.2
2020-Sep-29 23:12 149 7 gusting 10 22.2
2020-Sep-29 23:06 151 9 gusting 13 22.2
2020-Sep-29 23:00 154 7 gusting 10 22.2
2020-Sep-29 22:54 158 9 gusting 13 22.2
2020-Sep-29 22:48 161 7 gusting 10 22.8
2020-Sep-29 22:42 159 7 gusting 12 22.8
2020-Sep-29 22:36 168 7 gusting 11 22.8
2020-Sep-29 22:30 177 7 gusting 9 22.8
2020-Sep-29 22:24 172 9 gusting 13 22.8
2020-Sep-29 22:18 176 8 gusting 12 22.8
2020-Sep-29 22:12 179 7 gusting 12 22.8
2020-Sep-29 22:06 189 7 gusting 11 22.8
2020-Sep-29 22:00 190 8 gusting 11 22.8
2020-Sep-29 21:54 181 6 gusting 10 22.8
2020-Sep-29 21:48 185 6 gusting 7 22.8
2020-Sep-29 21:42 194 6 gusting 7 21.7
2020-Sep-29 21:36 201 6 gusting 9 21.7
2020-Sep-29 21:30 203 6 gusting 10 22.8
2020-Sep-29 21:24 195 7 gusting 11 22.8
2020-Sep-29 21:18 194 8 gusting 13 22.8
2020-Sep-29 21:12 188 7 gusting 11 22.8
2020-Sep-29 21:06 182 9 gusting 13 22.8
2020-Sep-29 21:00 196 7 gusting 10 22.2
2020-Sep-29 20:54 184 7 gusting 9 22.8
2020-Sep-29 20:48 175 7 gusting 11 22.8
2020-Sep-29 20:42 167 7 gusting 9 22.2
2020-Sep-29 20:36 161 9 gusting 12 22.8
2020-Sep-29 20:30 160 7 gusting 11 22.8
2020-Sep-29 20:24 172 6 gusting 9 22.8
2020-Sep-29 20:18 174 6 gusting 11 22.8
2020-Sep-29 20:12 154 7 gusting 10 22.8
2020-Sep-29 20:06 168 8 gusting 13 22.8
2020-Sep-29 20:00 170 11 gusting 13 22.8
2020-Sep-29 19:54 181 9 gusting 13 23.3
2020-Sep-29 19:48 172 7 gusting 12 23.3
2020-Sep-29 19:42 173 8 gusting 10 23.3
2020-Sep-29 19:36 189 9 gusting 13 23.3
2020-Sep-29 19:30 177 7 gusting 11 23.3
2020-Sep-29 19:24 190 8 gusting 13 23.3
2020-Sep-29 19:18 196 10 gusting 13 22.8
2020-Sep-29 19:12 198 10 gusting 14 22.8
2020-Sep-29 19:06 182 8 gusting 12 23.3
2020-Sep-29 19:00 176 9 gusting 13 23.3
2020-Sep-29 18:54 162 9 gusting 13 23.3
2020-Sep-29 18:48 183 8 gusting 11 22.8
2020-Sep-29 18:42 183 8 gusting 11 22.8
2020-Sep-29 18:36 186 7 gusting 11 22.2
2020-Sep-29 18:30 212 9 gusting 13 21.1
2020-Sep-29 18:24 209 8 gusting 11 21.7
2020-Sep-29 18:18 200 9 gusting 13 21.7
2020-Sep-29 18:12 207 8 gusting 11 21.1
2020-Sep-29 18:06 205 9 gusting 13 20.6
2020-Sep-29 18:00 210 9 gusting 10 21.7
2020-Sep-29 17:54 178 6 gusting 10 22.2
2020-Sep-29 17:48 191 6 gusting 9 21.7
2020-Sep-29 17:42 195 7 gusting 11 20.6
2020-Sep-29 17:36 221 10 gusting 11 20.6
2020-Sep-29 17:30 215 12 gusting 13 20.6
2020-Sep-29 17:24 219 11 gusting 14 20.6
2020-Sep-29 17:18 216 13 gusting 14 20.6
2020-Sep-29 17:12 217 10 gusting 12 20.6
2020-Sep-29 17:06 227 8 gusting 10 20.6
2020-Sep-29 17:00 230 8 gusting 9 20.6
2020-Sep-29 16:54 226 9 gusting 11 20.6
2020-Sep-29 16:48 223 9 gusting 11 20.6
2020-Sep-29 16:42 224 8 gusting 11 20.6
2020-Sep-29 16:36 226 6 gusting 6 21.1
2020-Sep-29 16:30 197 6 gusting 8 21.7
2020-Sep-29 16:24 190 4 gusting 7 21.1
2020-Sep-29 16:18 191 6 gusting 9 21.7
2020-Sep-29 16:12 191 8 gusting 13 21.7
2020-Sep-29 16:06 197 5 gusting 7 20.6
2020-Sep-29 16:00 213 6 gusting 8 20.6